createdAt,value
2019-04-03T00:01:45.988Z,6.30
2019-04-03T00:04:16.496Z,4.67
2019-04-03T00:06:46.957Z,6.87
2019-04-03T00:09:17.883Z,4.60
2019-04-03T00:11:48.458Z,5.77
2019-04-03T00:14:19.049Z,6.13
2019-04-03T00:16:49.872Z,4.87
2019-04-03T00:19:20.325Z,4.80
2019-04-03T00:21:51.158Z,7.17
2019-04-03T00:24:22.604Z,5.00
2019-04-03T00:26:53.399Z,4.30
2019-04-03T00:29:24.233Z,3.33
2019-04-03T00:31:54.633Z,4.67
2019-04-03T00:34:25.496Z,3.67
2019-04-03T00:36:55.907Z,4.07
2019-04-03T00:39:26.498Z,4.93
2019-04-03T00:41:56.914Z,4.80
2019-04-03T00:44:28.954Z,3.77
2019-04-03T00:46:59.580Z,4.50
2019-04-03T00:49:31.523Z,4.30
2019-04-03T00:52:01.901Z,4.50
2019-04-03T00:54:33.532Z,4.10
2019-04-03T00:57:03.959Z,4.53
2019-04-03T00:59:34.418Z,6.13
2019-04-03T01:02:04.964Z,4.20
2019-04-03T01:04:35.814Z,4.20
2019-04-03T01:07:06.314Z,5.80
2019-04-03T01:09:39.156Z,4.60
2019-04-03T01:12:10.175Z,4.47
2019-04-03T01:14:40.644Z,6.43
2019-04-03T01:17:11.148Z,4.10
2019-04-03T01:19:41.847Z,5.13
2019-04-03T01:22:12.398Z,7.23
2019-04-03T01:24:42.952Z,3.97
2019-04-03T01:27:15.173Z,4.37
2019-04-03T01:29:45.858Z,4.87
2019-04-03T01:32:16.382Z,4.23
2019-04-03T01:34:47.729Z,3.80
2019-04-03T01:37:19.335Z,4.73
2019-04-03T01:39:50.886Z,4.10
2019-04-03T01:42:22.508Z,5.20
2019-04-03T01:44:55.007Z,5.70
2019-04-03T01:47:27.351Z,4.70
2019-04-03T01:49:58.553Z,4.67
2019-04-03T01:52:31.792Z,5.10
2019-04-03T01:55:04.258Z,5.87
2019-04-03T01:57:36.315Z,6.20
2019-04-03T02:00:07.672Z,4.10
2019-04-03T02:02:39.246Z,4.20
2019-04-03T02:05:12.187Z,4.30
2019-04-03T02:07:44.256Z,4.27
2019-04-03T02:10:19.418Z,5.43
2019-04-03T02:12:51.234Z,5.53
2019-04-03T02:15:22.322Z,5.00
2019-04-03T02:17:54.928Z,4.03
2019-04-03T02:20:27.109Z,4.23
2019-04-03T02:23:01.556Z,5.30
2019-04-03T02:25:34.748Z,4.97
2019-04-03T02:28:05.575Z,5.93
2019-04-03T02:30:36.197Z,4.17
2019-04-03T02:33:06.882Z,5.80
2019-04-03T02:35:40.095Z,3.90
2019-04-03T02:38:10.926Z,4.07
2019-04-03T02:40:41.632Z,6.33
2019-04-03T02:43:14.484Z,5.87
2019-04-03T02:45:45.016Z,4.03
2019-04-03T02:48:15.613Z,3.93
2019-04-03T02:50:47.876Z,4.23
2019-04-03T02:53:20.661Z,4.40
2019-04-03T02:55:51.085Z,7.83
2019-04-03T02:58:22.742Z,5.30
2019-04-03T03:00:53.568Z,4.93
2019-04-03T03:03:24.018Z,3.90
2019-04-03T03:05:54.472Z,4.23
2019-04-03T03:08:26.220Z,3.70
2019-04-03T03:10:57.716Z,4.20
2019-04-03T03:13:29.280Z,4.40
2019-04-03T03:16:05.693Z,3.80
2019-04-03T03:18:37.042Z,4.40
2019-04-03T03:21:11.620Z,5.93
2019-04-03T03:23:41.995Z,4.03
2019-04-03T03:26:13.142Z,4.20
2019-04-03T03:28:47.139Z,6.27
2019-04-03T03:31:17.380Z,5.40
2019-04-03T03:33:49.989Z,4.20
2019-04-03T03:36:24.808Z,4.50
2019-04-03T03:38:54.436Z,4.10
2019-04-03T03:41:25.472Z,4.07
2019-04-03T03:43:58.605Z,4.57
2019-04-03T03:46:29.716Z,4.83
2019-04-03T03:49:01.952Z,5.17
2019-04-03T03:51:34.835Z,5.37
2019-04-03T03:54:06.473Z,4.70
2019-04-03T03:56:37.063Z,4.77
2019-04-03T03:59:07.770Z,5.93
2019-04-03T04:01:38.349Z,4.43
2019-04-03T04:04:13.194Z,4.23
2019-04-03T04:06:40.992Z,5.90
2019-04-03T04:09:15.641Z,5.23
2019-04-03T04:11:45.556Z,4.93
2019-04-03T04:14:16.288Z,5.47
2019-04-03T04:16:47.469Z,6.13
2019-04-03T04:19:19.672Z,6.53
2019-04-03T04:21:50.322Z,7.17
2019-04-03T04:24:21.118Z,5.77
2019-04-03T04:26:51.822Z,5.70
2019-04-03T04:29:23.523Z,5.70
2019-04-03T04:31:53.990Z,5.27
2019-04-03T04:34:24.422Z,8.13
2019-04-03T04:36:55.667Z,5.90
2019-04-03T04:39:28.433Z,4.77
2019-04-03T04:41:59.120Z,6.47
2019-04-03T04:44:30.985Z,5.43
2019-04-03T04:47:01.561Z,6.03
2019-04-03T04:49:32.299Z,4.77
2019-04-03T04:52:02.895Z,5.00
2019-04-03T04:54:34.872Z,6.03
2019-04-03T04:57:08.251Z,7.50
2019-04-03T04:59:37.721Z,6.40
2019-04-03T05:02:08.150Z,6.10
2019-04-03T05:04:38.613Z,6.43
2019-04-03T05:07:09.295Z,7.10
2019-04-03T05:09:40.172Z,6.13
2019-04-03T05:12:10.719Z,7.50
2019-04-03T05:14:41.192Z,8.13
2019-04-03T05:17:11.710Z,6.77
2019-04-03T05:19:43.042Z,6.70
2019-04-03T05:22:13.736Z,5.23
2019-04-03T05:24:44.387Z,6.70
2019-04-03T05:27:14.866Z,5.80
2019-04-03T05:29:45.383Z,6.47
2019-04-03T05:32:15.959Z,7.33
2019-04-03T05:34:46.470Z,6.13
2019-04-03T05:37:20.244Z,4.37
2019-04-03T05:39:50.955Z,8.40
2019-04-03T05:42:22.842Z,7.97
2019-04-03T05:44:53.383Z,13.20
2019-04-03T05:47:23.909Z,7.87
2019-04-03T05:49:56.134Z,9.27
2019-04-03T05:52:26.782Z,13.57
2019-04-03T05:54:57.622Z,10.40
2019-04-03T05:57:30.859Z,11.73
2019-04-03T06:00:02.549Z,9.73
2019-04-03T06:02:33.523Z,11.83
2019-04-03T06:05:07.234Z,13.53
2019-04-03T06:07:37.972Z,16.00
2019-04-03T06:10:09.386Z,9.03
2019-04-03T06:12:40.030Z,11.30
2019-04-03T06:15:12.082Z,13.83
2019-04-03T06:17:42.522Z,10.93
2019-04-03T06:20:13.331Z,12.23
2019-04-03T06:22:43.814Z,9.60
2019-04-03T06:25:14.522Z,8.10
2019-04-03T06:27:46.389Z,11.17
2019-04-03T06:30:17.556Z,10.23
2019-04-03T06:32:48.119Z,7.07
2019-04-03T06:35:18.846Z,8.67
2019-04-03T06:37:53.099Z,12.00
2019-04-03T06:40:23.494Z,7.10
2019-04-03T06:42:54.194Z,9.13
2019-04-03T06:45:26.144Z,7.07
2019-04-03T06:47:56.875Z,8.23
2019-04-03T06:50:27.559Z,11.17
2019-04-03T06:52:59.675Z,10.13
2019-04-03T06:55:30.284Z,8.17
2019-04-03T06:58:00.924Z,14.07
2019-04-03T07:00:31.454Z,8.23
2019-04-03T07:03:03.867Z,6.07
2019-04-03T07:05:34.332Z,10.30
2019-04-03T07:08:05.915Z,9.47
2019-04-03T07:10:40.178Z,9.80
2019-04-03T07:13:09.896Z,8.17
2019-04-03T07:15:41.307Z,8.87
2019-04-03T07:18:12.086Z,8.47
2019-04-03T07:20:42.944Z,6.57
2019-04-03T07:23:13.920Z,8.90
2019-04-03T07:25:44.458Z,8.13
2019-04-03T07:28:14.965Z,13.27
2019-04-03T07:30:48.211Z,11.30
2019-04-03T07:33:19.733Z,9.23
2019-04-03T07:35:50.942Z,10.73
2019-04-03T07:38:22.749Z,11.87
2019-04-03T07:40:53.159Z,14.73
2019-04-03T07:43:26.146Z,9.57
2019-04-03T07:45:55.809Z,16.07
2019-04-03T07:48:27.314Z,9.87
2019-04-03T07:50:57.847Z,16.77
2019-04-03T07:53:28.349Z,16.83
2019-04-03T07:55:58.752Z,14.30
2019-04-03T07:58:32.617Z,18.37
2019-04-03T08:01:03.243Z,15.27
2019-04-03T08:03:33.691Z,10.30
2019-04-03T08:06:04.530Z,14.63
2019-04-03T08:08:34.997Z,12.30
2019-04-03T08:11:05.677Z,12.63
2019-04-03T08:13:38.155Z,11.27
2019-04-03T08:16:10.100Z,11.17
2019-04-03T08:18:40.906Z,13.70
2019-04-03T08:21:12.872Z,20.93
2019-04-03T08:23:43.360Z,15.93
2019-04-03T08:26:13.866Z,11.93
2019-04-03T08:28:44.560Z,17.17
2019-04-03T08:31:15.100Z,12.00
2019-04-03T08:33:45.756Z,15.03
2019-04-03T08:36:24.994Z,12.00
2019-04-03T08:38:51.159Z,11.27
2019-04-03T08:41:24.105Z,11.80
2019-04-03T08:43:54.127Z,12.90
2019-04-03T08:46:24.868Z,22.17
2019-04-03T08:48:55.833Z,12.63
2019-04-03T08:51:26.581Z,15.20
2019-04-03T08:53:57.250Z,12.27
2019-04-03T08:56:27.787Z,13.90
2019-04-03T08:58:58.542Z,16.47
2019-04-03T09:01:31.431Z,14.47
2019-04-03T09:04:02.734Z,11.63
2019-04-03T09:06:33.283Z,17.20
2019-04-03T09:09:06.029Z,13.73
2019-04-03T09:11:37.168Z,11.33
2019-04-03T09:14:07.946Z,15.53
2019-04-03T09:16:38.525Z,14.40
2019-04-03T09:19:10.474Z,14.57
2019-04-03T09:21:45.345Z,10.47
2019-04-03T09:24:15.495Z,11.37
2019-04-03T09:26:46.321Z,10.90
2019-04-03T09:29:25.261Z,16.70
2019-04-03T09:31:56.627Z,7.20
2019-04-03T09:34:29.956Z,8.50
2019-04-03T09:36:59.480Z,9.10
2019-04-03T09:39:32.394Z,7.30
2019-04-03T09:42:03.943Z,8.00
2019-04-03T09:44:35.340Z,8.30
2019-04-03T09:47:07.675Z,11.03
2019-04-03T09:49:42.655Z,7.50
2019-04-03T09:52:10.890Z,10.00
2019-04-03T09:54:42.925Z,7.43
2019-04-03T09:57:13.368Z,7.93
2019-04-03T09:59:44.048Z,7.13
2019-04-03T10:02:14.845Z,7.43
2019-04-03T10:04:45.693Z,8.87
2019-04-03T10:07:16.447Z,7.47
2019-04-03T10:09:47.237Z,6.37
2019-04-03T10:12:18.048Z,8.33
2019-04-03T10:14:48.525Z,7.67
2019-04-03T10:17:19.037Z,7.37
2019-04-03T10:19:49.814Z,6.50
2019-04-03T10:22:23.745Z,7.50
2019-04-03T10:24:52.588Z,8.47
2019-04-03T10:27:23.510Z,7.13
2019-04-03T10:29:56.326Z,9.13
2019-04-03T10:32:28.051Z,9.13
2019-04-03T10:34:59.054Z,6.90
2019-04-03T10:37:29.534Z,8.33
2019-04-03T10:40:01.594Z,5.17
2019-04-03T10:42:32.075Z,5.80
2019-04-03T10:45:02.559Z,4.23
2019-04-03T10:47:41.051Z,5.23
2019-04-03T10:50:07.275Z,4.13
2019-04-03T10:52:38.270Z,4.10
2019-04-03T10:55:09.271Z,4.03
2019-04-03T10:57:39.706Z,5.83
2019-04-03T11:00:13.392Z,2.50
2019-04-03T11:02:43.793Z,2.67
2019-04-03T11:05:15.342Z,2.57
2019-04-03T11:07:45.925Z,3.80
2019-04-03T11:10:17.718Z,2.97
2019-04-03T11:12:48.711Z,2.93
2019-04-03T11:15:21.854Z,4.00
2019-04-03T11:17:52.562Z,5.23
2019-04-03T11:20:25.050Z,2.93
2019-04-03T11:23:05.979Z,3.30
2019-04-03T11:25:42.177Z,2.50
2019-04-03T11:28:46.092Z,2.87
2019-04-03T11:31:28.930Z,3.10
2019-04-03T11:34:17.941Z,2.90
2019-04-03T11:37:03.953Z,3.03
2019-04-03T11:39:37.975Z,2.80
2019-04-03T11:42:09.904Z,5.20
2019-04-03T11:44:40.361Z,4.03
2019-04-03T11:47:13.518Z,2.87
2019-04-03T11:49:44.723Z,4.97
2019-04-03T11:52:15.618Z,5.60
2019-04-03T11:54:46.338Z,3.90
2019-04-03T11:57:17.685Z,3.27
2019-04-03T11:59:48.537Z,3.10
2019-04-03T12:02:19.672Z,3.10
2019-04-03T12:04:51.274Z,2.90
2019-04-03T12:07:24.446Z,3.30
2019-04-03T12:09:54.350Z,4.30
2019-04-03T12:12:24.847Z,2.70
2019-04-03T12:14:55.444Z,2.83
2019-04-03T12:17:26.994Z,2.57
2019-04-03T12:19:58.379Z,2.27
2019-04-03T12:22:28.866Z,3.27
2019-04-03T12:24:59.319Z,6.53
2019-04-03T12:27:31.636Z,10.40
2019-04-03T12:30:02.036Z,2.43
2019-04-03T12:32:38.475Z,2.97
2019-04-03T12:35:09.729Z,7.10
2019-04-03T12:37:39.420Z,1.97
2019-04-03T12:40:10.401Z,4.97
2019-04-03T12:42:41.254Z,9.17
2019-04-03T12:45:12.225Z,2.80
2019-04-03T12:47:44.675Z,2.43
2019-04-03T12:50:16.699Z,4.97
2019-04-03T12:52:47.536Z,2.00
2019-04-03T12:55:19.717Z,1.30
2019-04-03T12:57:50.506Z,3.00
2019-04-03T13:00:21.785Z,1.43
2019-04-03T13:02:52.886Z,1.20
2019-04-03T13:05:24.317Z,2.73
2019-04-03T13:07:54.779Z,3.13
2019-04-03T13:10:25.623Z,2.20
2019-04-03T13:12:57.054Z,0.90
2019-04-03T13:15:28.559Z,3.17
2019-04-03T13:17:59.287Z,1.30
2019-04-03T13:20:29.996Z,1.30
2019-04-03T13:23:00.786Z,1.30
2019-04-03T13:25:31.440Z,2.90
2019-04-03T13:28:03.950Z,2.50
2019-04-03T13:30:34.435Z,1.37
2019-04-03T13:33:06.711Z,1.43
2019-04-03T13:35:38.766Z,1.13
2019-04-03T13:38:09.397Z,3.10
2019-04-03T13:40:40.666Z,1.30
2019-04-03T13:43:11.145Z,1.10
2019-04-03T13:45:41.575Z,2.17
2019-04-03T13:48:13.366Z,1.93
2019-04-03T13:50:45.907Z,0.90
2019-04-03T13:53:19.685Z,1.33
2019-04-03T13:55:48.934Z,2.10
2019-04-03T13:58:21.144Z,0.80
2019-04-03T14:00:59.372Z,0.93
2019-04-03T14:03:24.669Z,0.80
2019-04-03T14:05:55.528Z,1.00
2019-04-03T14:08:27.057Z,2.10
2019-04-03T14:10:58.760Z,0.60
2019-04-03T14:13:29.783Z,0.80
2019-04-03T14:16:00.567Z,1.27
2019-04-03T14:18:30.977Z,2.43
2019-04-03T14:21:01.389Z,2.20
2019-04-03T14:23:34.149Z,0.90
2019-04-03T14:26:07.902Z,0.90
2019-04-03T14:28:36.193Z,1.93
2019-04-03T14:31:07.177Z,0.77
2019-04-03T14:33:44.168Z,0.80
2019-04-03T14:36:09.941Z,0.87
2019-04-03T14:38:43.177Z,2.03
2019-04-03T14:41:13.742Z,2.17
2019-04-03T14:43:44.283Z,1.03
2019-04-03T14:46:17.299Z,3.97
2019-04-03T14:48:47.000Z,1.10
2019-04-03T14:51:17.780Z,1.70
2019-04-03T14:53:48.401Z,2.20
2019-04-03T14:56:20.723Z,0.83
2019-04-03T14:58:52.618Z,0.70
2019-04-03T15:01:23.088Z,1.00
2019-04-03T15:03:53.722Z,1.77
2019-04-03T15:06:24.166Z,0.93
2019-04-03T15:08:55.478Z,1.20
2019-04-03T15:11:26.679Z,0.93
2019-04-03T15:13:57.415Z,1.07
2019-04-03T15:16:29.317Z,1.07
2019-04-03T15:19:02.046Z,1.37
2019-04-03T15:21:32.762Z,1.10
2019-04-03T15:24:03.517Z,0.80
2019-04-03T15:26:34.106Z,1.80
2019-04-03T15:29:05.177Z,1.00
2019-04-03T15:31:35.914Z,1.97
2019-04-03T15:34:06.495Z,3.90
2019-04-03T15:36:37.172Z,0.80
2019-04-03T15:39:16.411Z,0.90
2019-04-03T15:41:47.384Z,1.10
2019-04-03T15:44:20.568Z,0.97
2019-04-03T15:46:50.613Z,2.63
2019-04-03T15:49:21.272Z,0.80
2019-04-03T15:51:51.734Z,0.93
2019-04-03T15:54:22.564Z,0.80
2019-04-03T15:56:53.422Z,3.67
2019-04-03T15:59:24.129Z,4.53
2019-04-03T16:01:54.899Z,1.70
2019-04-03T16:04:26.999Z,3.80
2019-04-03T16:06:57.697Z,1.60
2019-04-03T16:09:32.869Z,0.87
2019-04-03T16:12:05.225Z,1.87
2019-04-03T16:14:37.033Z,1.30
2019-04-03T16:17:09.743Z,1.10
2019-04-03T16:19:43.264Z,2.50
2019-04-03T16:22:12.916Z,1.10
2019-04-03T16:24:44.402Z,2.13
2019-04-03T16:27:15.254Z,0.83
2019-04-03T16:29:45.876Z,1.20
2019-04-03T16:32:16.549Z,1.17
2019-04-03T16:34:47.471Z,1.33
2019-04-03T16:37:20.511Z,1.13
2019-04-03T16:39:50.398Z,1.37
2019-04-03T16:42:21.370Z,1.67
2019-04-03T16:44:52.414Z,2.83
2019-04-03T16:47:23.187Z,0.87
2019-04-03T16:49:54.849Z,3.50
2019-04-03T16:52:25.903Z,2.20
2019-04-03T16:54:56.491Z,1.30
2019-04-03T16:57:27.424Z,2.60
2019-04-03T16:59:58.547Z,1.17
2019-04-03T17:02:29.996Z,1.13
2019-04-03T17:05:00.746Z,0.90
2019-04-03T17:07:32.812Z,1.10
2019-04-03T17:10:03.344Z,1.80
2019-04-03T17:12:35.080Z,1.83
2019-04-03T17:15:06.755Z,2.93
2019-04-03T17:17:37.638Z,1.07
2019-04-03T17:20:09.514Z,2.00
2019-04-03T17:22:45.093Z,1.70
2019-04-03T17:25:15.534Z,1.90
2019-04-03T17:27:54.959Z,1.13
2019-04-03T17:30:19.471Z,1.73
2019-04-03T17:32:52.362Z,1.30
2019-04-03T17:35:22.882Z,1.40
2019-04-03T17:37:53.726Z,1.30
2019-04-03T17:40:24.346Z,1.17
2019-04-03T17:42:54.767Z,1.63
2019-04-03T17:45:25.215Z,1.40
2019-04-03T17:47:55.684Z,1.30
2019-04-03T17:50:27.848Z,1.10
2019-04-03T17:52:59.606Z,1.10
2019-04-03T17:55:30.203Z,1.00
2019-04-03T17:58:00.689Z,1.73
2019-04-03T18:00:31.631Z,1.00
2019-04-03T18:03:02.092Z,1.10
2019-04-03T18:05:33.351Z,3.77
2019-04-03T18:08:04.163Z,2.40
2019-04-03T18:10:34.938Z,1.53
2019-04-03T18:13:05.492Z,1.80
2019-04-03T18:15:37.225Z,2.53
2019-04-03T18:18:09.026Z,1.30
2019-04-03T18:20:39.990Z,3.67
2019-04-03T18:23:10.810Z,1.00
2019-04-03T18:25:41.924Z,2.10
2019-04-03T18:28:12.695Z,1.30
2019-04-03T18:30:44.075Z,1.90
2019-04-03T18:33:16.607Z,1.57
2019-04-03T18:35:50.126Z,1.30
2019-04-03T18:38:23.154Z,1.20
2019-04-03T18:41:16.615Z,1.60
2019-04-03T18:43:48.099Z,1.37
2019-04-03T18:46:32.162Z,1.80
2019-04-03T18:49:15.185Z,1.27
2019-04-03T18:51:58.845Z,1.70
2019-04-03T18:54:34.322Z,1.67
2019-04-03T18:57:16.828Z,1.97
2019-04-03T18:59:48.074Z,1.20
2019-04-03T19:02:19.254Z,2.10
2019-04-03T19:05:01.741Z,1.30
2019-04-03T19:07:26.765Z,1.40
2019-04-03T19:10:06.925Z,1.27
2019-04-03T19:12:35.877Z,1.50
2019-04-03T19:15:04.884Z,2.07
2019-04-03T19:17:35.594Z,1.30
2019-04-03T19:20:11.634Z,1.50
2019-04-03T19:22:44.105Z,1.30
2019-04-03T19:25:16.725Z,1.57
2019-04-03T19:27:49.741Z,1.40
2019-04-03T19:30:20.317Z,4.40
2019-04-03T19:33:06.508Z,1.90
2019-04-03T19:35:46.236Z,1.30
2019-04-03T19:38:18.251Z,2.27
2019-04-03T19:40:54.985Z,1.53
2019-04-03T19:43:31.903Z,1.40
2019-04-03T19:46:05.569Z,1.50
2019-04-03T19:48:36.523Z,1.03
2019-04-03T19:51:09.457Z,1.40
2019-04-03T19:53:40.360Z,1.53
2019-04-03T19:56:10.950Z,1.30
2019-04-03T19:58:42.161Z,1.10
2019-04-03T20:01:12.655Z,1.63
2019-04-03T20:03:44.310Z,1.30
2019-04-03T20:06:15.519Z,1.30
2019-04-03T20:08:47.169Z,1.20
2019-04-03T20:11:19.163Z,1.50
2019-04-03T20:13:49.657Z,1.67
2019-04-03T20:16:21.229Z,1.30
2019-04-03T20:18:51.701Z,1.50
2019-04-03T20:21:22.177Z,2.70
2019-04-03T20:23:52.969Z,8.70
2019-04-03T20:26:23.446Z,7.37
2019-04-03T20:28:56.754Z,9.57
2019-04-03T20:31:26.302Z,6.13
2019-04-03T20:33:56.730Z,6.17
2019-04-03T20:36:28.873Z,5.37
2019-04-03T20:38:59.803Z,6.63
2019-04-03T20:41:34.759Z,5.80
2019-04-03T20:44:05.864Z,7.03
2019-04-03T20:46:36.398Z,6.00
2019-04-03T20:49:09.316Z,6.13
2019-04-03T20:51:40.435Z,5.83
2019-04-03T20:54:11.910Z,6.40
2019-04-03T20:56:42.634Z,7.10
2019-04-03T20:59:13.099Z,6.57
2019-04-03T21:01:43.562Z,5.97
2019-04-03T21:04:14.858Z,6.50
2019-04-03T21:06:45.934Z,7.43
2019-04-03T21:09:16.395Z,6.60
2019-04-03T21:11:46.848Z,6.13
2019-04-03T21:14:17.337Z,6.07
2019-04-03T21:16:48.425Z,6.53
2019-04-03T21:19:21.268Z,6.77
2019-04-03T21:21:51.833Z,6.77
2019-04-03T21:24:22.488Z,6.33
2019-04-03T21:26:52.974Z,6.77
2019-04-03T21:29:23.400Z,5.93
2019-04-03T21:31:56.407Z,6.03
2019-04-03T21:34:26.018Z,7.13
2019-04-03T21:36:56.477Z,5.80
2019-04-03T21:39:28.472Z,6.53
2019-04-03T21:41:58.913Z,6.17
2019-04-03T21:44:32.599Z,5.83
2019-04-03T21:47:03.075Z,5.90
2019-04-03T21:49:33.622Z,6.30
2019-04-03T21:52:04.082Z,5.53
2019-04-03T21:54:34.533Z,6.33
2019-04-03T21:57:06.797Z,7.80
2019-04-03T21:59:37.206Z,6.37
2019-04-03T22:02:07.954Z,6.60
2019-04-03T22:04:38.494Z,5.80
2019-04-03T22:07:09.018Z,6.17
2019-04-03T22:09:39.479Z,6.37
2019-04-03T22:12:10.152Z,6.07
2019-04-03T22:14:42.610Z,6.80
2019-04-03T22:17:12.787Z,6.07
2019-04-03T22:19:43.242Z,6.70
2019-04-03T22:22:13.671Z,6.53
2019-04-03T22:24:44.163Z,6.20
2019-04-03T22:27:14.591Z,6.10
2019-04-03T22:29:45.023Z,5.80
2019-04-03T22:32:17.487Z,5.93
2019-04-03T22:34:47.925Z,5.63
2019-04-03T22:37:18.445Z,6.53
2019-04-03T22:39:52.568Z,7.43
2019-04-03T22:42:23.483Z,5.87
2019-04-03T22:44:54.239Z,6.33
2019-04-03T22:47:25.213Z,5.13
2019-04-03T22:49:56.142Z,5.20
2019-04-03T22:52:26.711Z,5.50
2019-04-03T22:54:59.568Z,5.43
2019-04-03T22:57:30.021Z,5.47
2019-04-03T23:00:02.227Z,6.03
2019-04-03T23:02:32.761Z,5.17
2019-04-03T23:05:03.213Z,5.83
2019-04-03T23:07:33.674Z,5.73
2019-04-03T23:10:04.884Z,5.70
2019-04-03T23:12:35.667Z,7.10
2019-04-03T23:15:08.624Z,5.97
2019-04-03T23:17:39.330Z,5.87
2019-04-03T23:20:10.177Z,6.27
2019-04-03T23:22:40.788Z,5.70
2019-04-03T23:25:11.931Z,7.27
2019-04-03T23:27:42.432Z,6.20
2019-04-03T23:30:12.878Z,6.27
2019-04-03T23:32:45.864Z,6.27
2019-04-03T23:35:15.681Z,6.50
2019-04-03T23:37:46.185Z,6.40
2019-04-03T23:40:16.983Z,7.13
2019-04-03T23:42:47.617Z,6.43
2019-04-03T23:45:19.277Z,6.70
2019-04-03T23:47:49.923Z,6.60
2019-04-03T23:50:21.996Z,7.20
2019-04-03T23:52:53.874Z,7.30
2019-04-03T23:55:24.372Z,6.73
2019-04-03T23:57:54.868Z,7.87
